createdAt,value
2023-05-05T00:00:40.893Z,5.13
2023-05-05T00:02:43.979Z,5.22
2023-05-05T00:04:47.283Z,5.43
2023-05-05T00:06:50.029Z,5.50
2023-05-05T00:08:54.150Z,5.03
2023-05-05T00:10:57.527Z,3.75
2023-05-05T00:13:00.625Z,5.00
2023-05-05T00:15:03.511Z,4.13
2023-05-05T00:17:06.341Z,4.18
2023-05-05T00:19:09.287Z,3.90
2023-05-05T00:21:12.077Z,4.28
2023-05-05T00:23:15.244Z,5.25
2023-05-05T00:25:19.386Z,3.83
2023-05-05T00:27:22.402Z,4.53
2023-05-05T00:29:25.248Z,5.35
2023-05-05T00:31:28.156Z,3.58
2023-05-05T00:33:31.203Z,4.35
2023-05-05T00:35:34.079Z,4.38
2023-05-05T00:37:37.447Z,3.85
2023-05-05T00:39:40.202Z,3.65
2023-05-05T00:41:44.366Z,4.40
2023-05-05T00:43:47.201Z,4.32
2023-05-05T00:45:58.146Z,4.57
2023-05-05T00:48:02.125Z,4.45
2023-05-05T00:50:05.351Z,4.40
2023-05-05T00:52:09.396Z,4.22
2023-05-05T00:54:12.232Z,5.10
2023-05-05T00:56:16.556Z,3.67
2023-05-05T00:58:21.855Z,3.60
2023-05-05T01:00:25.049Z,4.05
2023-05-05T01:02:27.997Z,4.00
2023-05-05T01:04:30.880Z,3.83
2023-05-05T01:06:47.764Z,3.88
2023-05-05T01:09:04.207Z,4.22
2023-05-05T01:11:15.313Z,3.65
2023-05-05T01:13:31.372Z,3.90
2023-05-05T01:15:37.417Z,4.22
2023-05-05T01:17:44.966Z,3.83
2023-05-05T01:20:10.438Z,4.40
2023-05-05T01:26:56.228Z,4.28
2023-05-05T01:29:28.356Z,4.15
2023-05-05T01:31:53.274Z,4.07
2023-05-05T01:34:01.625Z,3.97
2023-05-05T01:36:08.750Z,4.65
2023-05-05T01:38:16.149Z,4.85
2023-05-05T01:40:23.701Z,3.70
2023-05-05T01:42:28.068Z,4.53
2023-05-05T01:44:33.787Z,4.03
2023-05-05T01:46:37.369Z,4.63
2023-05-05T01:48:43.597Z,5.20
2023-05-05T01:50:48.687Z,3.97
2023-05-05T01:52:52.648Z,4.55
2023-05-05T01:54:58.784Z,4.78
2023-05-05T01:57:05.075Z,4.38
2023-05-05T01:59:08.173Z,4.50
2023-05-05T02:01:13.327Z,4.43
2023-05-05T02:03:18.189Z,4.50
2023-05-05T02:05:24.730Z,4.18
2023-05-05T02:07:29.006Z,4.20
2023-05-05T02:09:33.439Z,4.53
2023-05-05T02:11:36.505Z,5.18
2023-05-05T02:13:43.049Z,5.07
2023-05-05T02:15:52.279Z,4.82
2023-05-05T02:17:56.355Z,5.18
2023-05-05T02:20:00.991Z,4.60
2023-05-05T02:24:09.004Z,5.03
2023-05-05T02:26:15.189Z,4.60
2023-05-05T02:28:23.476Z,5.20
2023-05-05T02:30:33.174Z,4.68
2023-05-05T02:32:40.511Z,4.55
2023-05-05T02:34:48.255Z,4.88
2023-05-05T02:36:54.576Z,4.55
2023-05-05T02:39:06.390Z,4.68
2023-05-05T02:41:17.661Z,5.38
2023-05-05T02:43:24.096Z,4.88
2023-05-05T02:45:29.432Z,5.60
2023-05-05T02:47:36.447Z,5.28
2023-05-05T02:49:39.494Z,4.43
2023-05-05T02:51:42.308Z,5.00
2023-05-05T02:53:54.166Z,4.82
2023-05-05T02:56:07.127Z,5.80
2023-05-05T02:58:22.854Z,5.57
2023-05-05T03:00:35.300Z,5.13
2023-05-05T03:02:45.926Z,5.50
2023-05-05T03:04:56.390Z,5.93
2023-05-05T03:07:08.164Z,4.80
2023-05-05T03:09:15.188Z,4.85
2023-05-05T03:11:28.481Z,5.00
2023-05-05T03:13:35.771Z,5.90
2023-05-05T03:15:50.716Z,6.20
2023-05-05T03:17:57.607Z,5.88
2023-05-05T03:20:05.388Z,6.05
2023-05-05T03:22:10.897Z,6.07
2023-05-05T03:24:19.202Z,6.45
2023-05-05T03:26:39.456Z,6.13
2023-05-05T03:28:42.313Z,7.03
2023-05-05T03:30:52.850Z,5.93
2023-05-05T03:32:55.953Z,7.43
2023-05-05T03:34:58.861Z,6.10
2023-05-05T03:37:06.964Z,7.00
2023-05-05T03:39:10.700Z,6.68
2023-05-05T03:41:13.890Z,6.53
2023-05-05T03:43:19.483Z,6.20
2023-05-05T03:45:22.623Z,6.55
2023-05-05T03:47:25.706Z,6.30
2023-05-05T03:49:29.943Z,6.50
2023-05-05T03:51:33.537Z,6.25
2023-05-05T03:53:36.683Z,5.85
2023-05-05T03:55:42.326Z,6.05
2023-05-05T03:57:45.892Z,6.20
2023-05-05T03:59:50.009Z,6.07
2023-05-05T04:01:52.833Z,6.70
2023-05-05T04:03:56.256Z,6.15
2023-05-05T04:05:59.274Z,6.40
2023-05-05T04:08:03.232Z,6.63
2023-05-05T04:10:07.436Z,6.30
2023-05-05T04:12:10.664Z,6.47
2023-05-05T04:14:13.928Z,6.97
2023-05-05T04:16:18.424Z,6.57
2023-05-05T04:18:21.351Z,7.28
2023-05-05T04:20:24.183Z,7.05
2023-05-05T04:22:27.034Z,6.60
2023-05-05T04:24:30.112Z,7.07
2023-05-05T04:26:32.946Z,6.70
2023-05-05T04:28:35.833Z,6.80
2023-05-05T04:30:38.839Z,7.32
2023-05-05T04:32:43.083Z,6.57
2023-05-05T04:34:46.816Z,6.45
2023-05-05T04:36:49.618Z,6.70
2023-05-05T04:38:53.051Z,6.65
2023-05-05T04:40:55.930Z,6.80
2023-05-05T04:42:58.765Z,7.28
2023-05-05T04:45:01.821Z,7.05
2023-05-05T04:47:05.850Z,6.30
2023-05-05T04:49:10.052Z,5.88
2023-05-05T04:51:13.207Z,6.38
2023-05-05T04:53:16.792Z,6.60
2023-05-05T04:55:20.117Z,6.78
2023-05-05T04:57:22.988Z,6.05
2023-05-05T04:59:25.914Z,8.23
2023-05-05T05:01:28.734Z,6.93
2023-05-05T05:03:32.118Z,7.22
2023-05-05T05:05:36.495Z,7.50
2023-05-05T05:07:39.341Z,8.02
2023-05-05T05:09:42.260Z,7.75
2023-05-05T05:11:45.091Z,7.32
2023-05-05T05:13:47.895Z,8.05
2023-05-05T05:15:50.803Z,7.65
2023-05-05T05:17:54.494Z,6.95
2023-05-05T05:19:59.201Z,6.25
2023-05-05T05:24:08.450Z,8.10
2023-05-05T05:26:11.309Z,7.25
2023-05-05T05:28:14.301Z,6.65
2023-05-05T05:30:25.060Z,6.47
2023-05-05T05:32:28.217Z,6.82
2023-05-05T05:34:31.401Z,6.28
2023-05-05T05:36:34.699Z,7.25
2023-05-05T05:38:38.866Z,6.50
2023-05-05T05:40:42.005Z,6.45
2023-05-05T05:42:45.229Z,6.60
2023-05-05T05:44:47.971Z,6.50
2023-05-05T05:46:50.914Z,5.93
2023-05-05T05:48:53.804Z,6.45
2023-05-05T05:50:57.099Z,7.70
2023-05-05T05:53:00.697Z,7.35
2023-05-05T05:55:06.747Z,6.85
2023-05-05T05:57:10.345Z,6.28
2023-05-05T05:59:13.174Z,6.88
2023-05-05T06:01:17.152Z,6.05
2023-05-05T06:03:20.970Z,6.93
2023-05-05T06:05:23.915Z,7.10
2023-05-05T06:07:27.771Z,5.75
2023-05-05T06:09:30.621Z,6.90
2023-05-05T06:11:35.050Z,6.68
2023-05-05T06:15:42.202Z,6.88
2023-05-05T06:17:45.744Z,6.68
2023-05-05T06:19:48.599Z,6.00
2023-05-05T06:21:51.770Z,5.78
2023-05-05T06:23:55.047Z,7.50
2023-05-05T06:25:57.931Z,6.10
2023-05-05T06:28:02.107Z,6.13
2023-05-05T06:30:06.750Z,7.20
2023-05-05T06:32:09.787Z,6.68
2023-05-05T06:34:12.530Z,6.32
2023-05-05T06:36:15.347Z,6.40
2023-05-05T06:38:18.151Z,6.93
2023-05-05T06:40:21.013Z,7.18
2023-05-05T06:42:23.948Z,6.22
2023-05-05T06:44:31.001Z,5.78
2023-05-05T06:46:34.154Z,5.95
2023-05-05T06:48:36.995Z,6.15
2023-05-05T06:50:39.876Z,7.20
2023-05-05T06:52:42.684Z,6.80
2023-05-05T06:54:45.482Z,6.15
2023-05-05T06:56:48.280Z,7.35
2023-05-05T06:58:51.512Z,6.55
2023-05-05T07:00:55.781Z,6.88
2023-05-05T07:02:58.622Z,7.55
2023-05-05T07:05:01.537Z,7.53
2023-05-05T07:07:07.444Z,5.95
2023-05-05T07:09:10.412Z,6.53
2023-05-05T07:11:13.234Z,6.75
2023-05-05T07:13:17.381Z,7.22
2023-05-05T07:15:28.671Z,7.55
2023-05-05T07:17:33.896Z,7.25
2023-05-05T07:19:36.770Z,5.35
2023-05-05T07:21:39.700Z,5.22
2023-05-05T07:23:42.561Z,6.03
2023-05-05T07:25:45.438Z,5.38
2023-05-05T07:27:48.203Z,5.47
2023-05-05T07:29:51.222Z,5.80
2023-05-05T07:31:54.082Z,4.63
2023-05-05T07:33:58.288Z,4.72
2023-05-05T07:36:01.110Z,5.45
2023-05-05T07:38:03.896Z,5.32
2023-05-05T07:40:08.394Z,5.20
2023-05-05T07:44:14.033Z,5.10
2023-05-05T07:46:16.884Z,5.40
2023-05-05T07:48:20.010Z,5.43
2023-05-05T07:50:24.893Z,4.57
2023-05-05T07:52:44.176Z,4.00
2023-05-05T07:54:50.850Z,5.32
2023-05-05T07:56:54.021Z,4.97
2023-05-05T07:58:56.822Z,4.40
2023-05-05T08:01:00.795Z,4.55
2023-05-05T08:03:03.956Z,4.88
2023-05-05T08:05:08.098Z,4.63
2023-05-05T08:07:12.536Z,5.65
2023-05-05T08:09:15.434Z,4.75
2023-05-05T08:11:18.377Z,4.50
2023-05-05T08:13:21.354Z,3.97
2023-05-05T08:15:24.160Z,4.65
2023-05-05T08:17:27.141Z,3.90
2023-05-05T08:19:29.966Z,3.85
2023-05-05T08:21:33.922Z,3.58
2023-05-05T08:23:39.062Z,4.05
2023-05-05T08:25:41.873Z,3.80
2023-05-05T08:27:45.952Z,3.17
2023-05-05T08:29:48.955Z,3.00
2023-05-05T08:31:51.942Z,2.60
2023-05-05T08:33:55.166Z,2.80
2023-05-05T08:35:59.936Z,2.75
2023-05-05T08:38:02.859Z,3.50
2023-05-05T08:40:08.521Z,2.83
2023-05-05T08:42:11.792Z,2.55
2023-05-05T08:44:16.106Z,2.65
2023-05-05T08:46:19.162Z,2.75
2023-05-05T08:48:24.925Z,2.55
2023-05-05T08:50:29.916Z,2.72
2023-05-05T08:52:39.562Z,2.30
2023-05-05T08:54:51.323Z,2.63
2023-05-05T08:56:59.645Z,2.78
2023-05-05T08:59:03.711Z,3.00
2023-05-05T09:01:08.207Z,2.88
2023-05-05T09:03:12.199Z,2.58
2023-05-05T09:05:15.327Z,2.70
2023-05-05T09:07:18.360Z,2.42
2023-05-05T09:09:21.406Z,2.47
2023-05-05T09:11:24.321Z,2.35
2023-05-05T09:13:28.684Z,3.80
2023-05-05T09:17:35.810Z,3.05
2023-05-05T09:19:57.313Z,2.50
2023-05-05T09:22:00.370Z,2.10
2023-05-05T09:24:11.258Z,1.73
2023-05-05T09:26:14.445Z,1.27
2023-05-05T09:28:18.977Z,2.10
2023-05-05T09:30:26.914Z,2.53
2023-05-05T09:32:30.653Z,1.70
2023-05-05T09:34:35.350Z,1.90
2023-05-05T09:36:48.832Z,1.67
2023-05-05T09:39:06.225Z,1.42
2023-05-05T09:41:09.289Z,1.70
2023-05-05T09:43:12.338Z,1.65
2023-05-05T09:45:28.741Z,1.30
2023-05-05T09:47:35.593Z,1.30
2023-05-05T09:49:39.070Z,1.58
2023-05-05T09:51:41.998Z,1.43
2023-05-05T09:53:44.999Z,1.50
2023-05-05T09:55:55.596Z,2.13
2023-05-05T09:57:58.539Z,1.50
2023-05-05T10:00:04.126Z,2.85
2023-05-05T10:02:14.357Z,1.65
2023-05-05T10:04:25.537Z,2.00
2023-05-05T10:06:41.532Z,1.58
2023-05-05T10:08:44.296Z,2.42
2023-05-05T10:10:55.433Z,1.60
2023-05-05T10:12:58.548Z,2.00
2023-05-05T10:15:03.565Z,2.10
2023-05-05T10:17:08.033Z,1.67
2023-05-05T10:21:21.011Z,1.80
2023-05-05T10:23:25.241Z,1.30
2023-05-05T10:25:31.478Z,1.90
2023-05-05T10:27:43.190Z,1.95
2023-05-05T10:29:53.190Z,1.80
2023-05-05T10:32:21.501Z,2.00
2023-05-05T10:34:36.256Z,2.17
2023-05-05T10:37:00.181Z,2.10
2023-05-05T10:39:06.689Z,2.10
2023-05-05T10:41:12.093Z,1.60
2023-05-05T10:43:15.281Z,1.58
2023-05-05T10:45:18.136Z,1.40
2023-05-05T10:47:23.167Z,1.50
2023-05-05T10:49:41.868Z,1.52
2023-05-05T10:51:54.533Z,1.30
2023-05-05T10:54:01.381Z,1.60
2023-05-05T10:56:11.599Z,1.90
2023-05-05T10:58:35.040Z,1.50
2023-05-05T11:00:50.783Z,3.10
2023-05-05T11:03:23.532Z,1.70
2023-05-05T11:05:27.762Z,1.75
2023-05-05T11:07:30.624Z,1.70
2023-05-05T11:09:37.045Z,2.00
2023-05-05T11:12:05.355Z,1.98
2023-05-05T11:14:22.273Z,2.03
2023-05-05T11:16:45.455Z,1.70
2023-05-05T11:18:48.349Z,2.05
2023-05-05T11:21:18.207Z,3.20
2023-05-05T11:23:24.305Z,2.20
2023-05-05T11:25:51.246Z,2.05
2023-05-05T11:28:07.001Z,1.75
2023-05-05T11:30:11.505Z,1.60
2023-05-05T11:32:15.638Z,1.70
2023-05-05T11:34:28.782Z,2.00
2023-05-05T11:36:41.999Z,1.20
2023-05-05T11:39:02.578Z,2.22
2023-05-05T11:41:13.336Z,1.83
2023-05-05T11:43:19.656Z,2.55
2023-05-05T11:45:23.934Z,1.98
2023-05-05T11:49:35.398Z,2.30
2023-05-05T11:51:38.800Z,2.00
2023-05-05T11:53:45.035Z,1.70
2023-05-05T11:55:47.863Z,1.85
2023-05-05T11:57:50.825Z,1.58
2023-05-05T11:59:56.169Z,2.10
2023-05-05T12:01:59.407Z,1.50
2023-05-05T12:04:02.527Z,1.63
2023-05-05T12:06:06.934Z,1.85
2023-05-05T12:10:14.520Z,1.73
2023-05-05T12:12:18.467Z,1.58
2023-05-05T12:14:22.055Z,1.70
2023-05-05T12:16:24.927Z,1.40
2023-05-05T12:18:28.213Z,1.90
2023-05-05T12:20:32.540Z,1.67
2023-05-05T12:24:38.185Z,1.85
2023-05-05T12:26:42.741Z,1.35
2023-05-05T12:28:47.137Z,1.40
2023-05-05T12:33:03.797Z,1.48
2023-05-05T12:35:08.052Z,2.53
2023-05-05T12:37:12.411Z,1.70
2023-05-05T12:39:15.285Z,1.63
2023-05-05T12:41:21.231Z,1.48
2023-05-05T12:43:28.487Z,1.38
2023-05-05T12:45:31.352Z,1.70
2023-05-05T12:47:35.539Z,1.70
2023-05-05T12:49:51.559Z,2.08
2023-05-05T12:51:55.637Z,2.90
2023-05-05T12:54:07.191Z,1.40
2023-05-05T12:56:35.025Z,1.75
2023-05-05T12:58:52.061Z,2.10
2023-05-05T13:01:08.990Z,2.25
2023-05-05T13:03:20.276Z,1.70
2023-05-05T13:05:32.820Z,2.10
2023-05-05T13:07:35.701Z,1.60
2023-05-05T13:09:38.677Z,1.65
2023-05-05T13:11:41.563Z,1.70
2023-05-05T13:13:44.326Z,1.63
2023-05-05T13:15:48.472Z,1.65
2023-05-05T13:17:51.338Z,1.38
2023-05-05T13:19:54.170Z,1.40
2023-05-05T13:21:58.071Z,1.73
2023-05-05T13:24:12.494Z,1.50
2023-05-05T13:26:24.783Z,1.40
2023-05-05T13:28:27.572Z,1.45
2023-05-05T13:30:30.360Z,1.58
2023-05-05T13:32:34.575Z,1.85
2023-05-05T13:34:38.907Z,1.60
2023-05-05T13:38:44.273Z,1.70
2023-05-05T13:40:47.007Z,1.40
2023-05-05T13:42:49.847Z,1.40
2023-05-05T13:44:52.740Z,1.33
2023-05-05T13:46:55.521Z,1.73
2023-05-05T13:48:59.626Z,1.58
2023-05-05T13:51:02.474Z,1.67
2023-05-05T13:53:05.283Z,2.05
2023-05-05T13:55:09.130Z,1.95
2023-05-05T13:57:12.357Z,1.50
2023-05-05T13:59:15.178Z,1.60
2023-05-05T14:01:17.998Z,1.70
2023-05-05T14:03:20.848Z,1.48
2023-05-05T14:05:25.048Z,2.08
2023-05-05T14:07:28.003Z,1.50
2023-05-05T14:09:30.791Z,1.75
2023-05-05T14:11:33.651Z,1.77
2023-05-05T14:13:36.610Z,2.10
2023-05-05T14:15:39.407Z,1.67
2023-05-05T14:17:42.234Z,1.55
2023-05-05T14:19:45.436Z,1.33
2023-05-05T14:21:49.519Z,1.80
2023-05-05T14:23:52.428Z,1.75
2023-05-05T14:25:55.224Z,1.30
2023-05-05T14:27:58.006Z,1.60
2023-05-05T14:30:00.850Z,2.10
2023-05-05T14:32:03.751Z,1.80
2023-05-05T14:34:06.663Z,1.60
2023-05-05T14:36:09.951Z,1.70
2023-05-05T14:38:14.137Z,1.92
2023-05-05T14:42:19.596Z,1.48
2023-05-05T14:44:22.411Z,1.30
2023-05-05T14:46:26.100Z,1.30
2023-05-05T14:48:28.940Z,1.70
2023-05-05T14:50:31.758Z,1.30
2023-05-05T14:52:34.602Z,1.70
2023-05-05T14:54:38.777Z,1.63
2023-05-05T14:56:41.728Z,1.88
2023-05-05T14:58:44.623Z,1.85
2023-05-05T15:00:47.455Z,1.90
2023-05-05T15:02:50.348Z,1.58
2023-05-05T15:04:53.543Z,1.77
2023-05-05T15:06:56.537Z,1.52
2023-05-05T15:08:59.335Z,1.77
2023-05-05T15:11:04.181Z,1.40
2023-05-05T15:13:06.995Z,1.40
2023-05-05T15:15:10.746Z,1.45
2023-05-05T15:17:13.812Z,2.10
2023-05-05T15:19:16.569Z,1.73
2023-05-05T15:21:19.317Z,1.48
2023-05-05T15:23:22.061Z,1.45
2023-05-05T15:25:25.111Z,1.70
2023-05-05T15:27:30.074Z,1.67
2023-05-05T15:29:33.026Z,1.77
2023-05-05T15:31:35.901Z,1.55
2023-05-05T15:33:39.269Z,1.27
2023-05-05T15:35:42.020Z,1.98
2023-05-05T15:37:44.932Z,1.42
2023-05-05T15:39:47.788Z,2.47
2023-05-05T15:41:50.592Z,1.50
2023-05-05T15:43:54.726Z,1.40
2023-05-05T15:45:57.494Z,1.38
2023-05-05T15:48:00.329Z,1.30
2023-05-05T15:50:03.299Z,1.50
2023-05-05T15:52:06.381Z,1.50
2023-05-05T15:54:09.160Z,1.27
2023-05-05T15:56:11.958Z,2.15
2023-05-05T15:58:14.702Z,1.83
2023-05-05T16:00:19.058Z,2.10
2023-05-05T16:02:23.847Z,2.20
2023-05-05T16:04:26.814Z,1.30
2023-05-05T16:06:29.918Z,2.20
2023-05-05T16:08:32.682Z,1.85
2023-05-05T16:10:36.195Z,1.05
2023-05-05T16:12:38.958Z,1.30
2023-05-05T16:14:41.848Z,1.45
2023-05-05T16:16:46.011Z,1.25
2023-05-05T16:18:50.113Z,1.42
2023-05-05T16:20:52.892Z,1.63
2023-05-05T16:22:55.899Z,1.30
2023-05-05T16:24:58.699Z,1.50
2023-05-05T16:27:01.474Z,1.48
2023-05-05T16:29:04.317Z,1.40
2023-05-05T16:31:09.462Z,1.40
2023-05-05T16:33:13.720Z,1.90
2023-05-05T16:35:16.547Z,1.65
2023-05-05T16:37:19.348Z,2.33
2023-05-05T16:39:22.100Z,1.90
2023-05-05T16:41:25.957Z,2.10
2023-05-05T16:43:28.829Z,1.67
2023-05-05T16:45:31.592Z,1.80
2023-05-05T16:47:34.421Z,1.70
2023-05-05T16:49:38.595Z,2.10
2023-05-05T16:51:41.352Z,2.05
2023-05-05T16:53:44.147Z,1.65
2023-05-05T16:55:50.905Z,2.03
2023-05-05T16:57:53.786Z,1.98
2023-05-05T16:59:56.931Z,1.88
2023-05-05T17:01:59.813Z,2.17
2023-05-05T17:04:02.679Z,2.08
2023-05-05T17:06:07.339Z,2.35
2023-05-05T17:08:11.185Z,2.47
2023-05-05T17:10:13.946Z,1.77
2023-05-05T17:12:16.799Z,2.00
2023-05-05T17:14:19.603Z,1.95
2023-05-05T17:16:22.598Z,2.08
2023-05-05T17:18:25.898Z,2.65
2023-05-05T17:20:28.820Z,2.08
2023-05-05T17:22:32.981Z,2.35
2023-05-05T17:24:35.780Z,1.80
2023-05-05T17:26:39.695Z,1.98
2023-05-05T17:28:42.555Z,1.75
2023-05-05T17:30:45.494Z,1.77
2023-05-05T17:32:48.661Z,1.73
2023-05-05T17:34:51.513Z,1.80
2023-05-05T17:36:54.265Z,2.13
2023-05-05T17:38:58.431Z,2.00
2023-05-05T17:41:01.613Z,2.28
2023-05-05T17:43:04.474Z,2.38
2023-05-05T17:45:08.722Z,2.00
2023-05-05T17:49:14.455Z,1.73
2023-05-05T17:51:17.261Z,2.08
2023-05-05T17:53:20.023Z,2.22
2023-05-05T17:55:24.171Z,2.22
2023-05-05T17:57:27.004Z,1.70
2023-05-05T17:59:29.834Z,2.63
2023-05-05T18:01:32.705Z,2.28
2023-05-05T18:03:36.805Z,2.00
2023-05-05T18:05:40.808Z,2.03
2023-05-05T18:07:43.621Z,2.10
2023-05-05T18:09:46.427Z,2.28
2023-05-05T18:11:52.552Z,3.00
2023-05-05T18:13:55.799Z,2.30
2023-05-05T18:15:58.658Z,3.05
2023-05-05T18:18:01.597Z,2.10
2023-05-05T18:20:06.834Z,1.98
2023-05-05T18:22:09.610Z,2.20
2023-05-05T18:26:21.215Z,2.05
2023-05-05T18:28:25.394Z,2.20
2023-05-05T18:30:28.133Z,1.92
2023-05-05T18:32:31.259Z,1.90
2023-05-05T18:34:34.135Z,5.10
2023-05-05T18:36:36.941Z,2.53
2023-05-05T18:38:39.670Z,2.97
2023-05-05T18:40:42.556Z,2.42
2023-05-05T18:42:45.330Z,2.78
2023-05-05T18:44:49.452Z,3.03
2023-05-05T18:46:52.379Z,3.08
2023-05-05T18:48:55.205Z,5.30
2023-05-05T18:51:02.168Z,2.97
2023-05-05T18:53:04.968Z,2.72
2023-05-05T18:55:08.352Z,5.70
2023-05-05T18:57:11.327Z,13.57
2023-05-05T18:59:14.074Z,6.45
2023-05-05T19:01:18.359Z,5.43
2023-05-05T19:03:22.049Z,7.18
2023-05-05T19:05:24.949Z,3.30
2023-05-05T19:07:35.062Z,2.33
2023-05-05T19:09:38.614Z,2.63
2023-05-05T19:11:42.836Z,2.97
2023-05-05T19:13:45.786Z,2.88
2023-05-05T19:15:49.205Z,2.47
2023-05-05T19:17:53.617Z,2.60
2023-05-05T19:21:59.947Z,2.80
2023-05-05T19:24:03.466Z,3.05
2023-05-05T19:26:06.785Z,2.42
2023-05-05T19:28:10.660Z,2.78
2023-05-05T19:30:13.788Z,2.53
2023-05-05T19:32:16.838Z,2.03
2023-05-05T19:34:21.389Z,2.53
2023-05-05T19:38:27.626Z,2.40
2023-05-05T19:40:30.605Z,2.72
2023-05-05T19:43:23.608Z,1.98
2023-05-05T19:45:26.461Z,2.45
2023-05-05T19:47:29.280Z,2.60
2023-05-05T19:49:33.436Z,2.60
2023-05-05T19:51:36.276Z,2.47
2023-05-05T19:53:40.025Z,3.03
2023-05-05T19:55:42.811Z,2.58
2023-05-05T19:57:45.604Z,2.70
2023-05-05T19:59:49.531Z,2.80
2023-05-05T20:01:52.400Z,2.53
2023-05-05T20:03:57.002Z,2.58
2023-05-05T20:06:01.396Z,2.30
2023-05-05T20:08:04.228Z,3.35
2023-05-05T20:10:08.302Z,2.10
2023-05-05T20:12:12.143Z,2.58
2023-05-05T20:14:15.061Z,2.40
2023-05-05T20:16:18.159Z,2.80
2023-05-05T20:18:21.066Z,2.50
2023-05-05T20:20:23.935Z,2.70
2023-05-05T20:22:28.057Z,3.00
2023-05-05T20:24:31.355Z,2.60
2023-05-05T20:26:34.349Z,2.80
2023-05-05T20:28:38.999Z,3.00
2023-05-05T20:30:41.796Z,2.95
2023-05-05T20:32:44.594Z,2.75
2023-05-05T20:34:47.515Z,2.67
2023-05-05T20:36:50.666Z,2.65
2023-05-05T20:38:55.007Z,3.05
2023-05-05T20:40:57.790Z,2.63
2023-05-05T20:43:00.532Z,2.60
2023-05-05T20:45:03.480Z,2.50
2023-05-05T20:47:06.761Z,2.55
2023-05-05T20:49:09.739Z,2.70
2023-05-05T20:51:12.544Z,2.75
2023-05-05T20:53:15.512Z,2.47
2023-05-05T20:55:19.789Z,3.22
2023-05-05T20:57:22.608Z,3.00
2023-05-05T20:59:27.939Z,3.13
2023-05-05T21:01:30.959Z,2.90
2023-05-05T21:03:33.845Z,2.90
2023-05-05T21:05:37.151Z,2.88
2023-05-05T21:07:39.880Z,3.00
2023-05-05T21:09:42.856Z,3.90
2023-05-05T21:11:47.152Z,2.70
2023-05-05T21:13:49.927Z,3.03
2023-05-05T21:15:52.706Z,2.88
2023-05-05T21:17:56.144Z,3.10
2023-05-05T21:19:58.960Z,2.80
2023-05-05T21:22:02.171Z,3.15
2023-05-05T21:24:07.671Z,2.88
2023-05-05T21:26:10.793Z,3.30
2023-05-05T21:28:14.959Z,2.80
2023-05-05T21:30:18.273Z,3.05
2023-05-05T21:32:21.332Z,3.55
2023-05-05T21:34:24.150Z,3.25
2023-05-05T21:36:27.260Z,3.42
2023-05-05T21:38:30.061Z,3.70
2023-05-05T21:40:32.888Z,3.47
2023-05-05T21:42:35.674Z,3.47
2023-05-05T21:44:39.865Z,3.40
2023-05-05T21:46:42.869Z,3.75
2023-05-05T21:48:48.119Z,3.58
2023-05-05T21:50:50.957Z,3.50
2023-05-05T21:52:53.730Z,3.47
2023-05-05T21:54:56.565Z,2.92
2023-05-05T21:57:00.142Z,3.92
2023-05-05T21:59:03.773Z,3.45
2023-05-05T22:01:08.100Z,3.57
2023-05-05T22:03:11.012Z,4.18
2023-05-05T22:05:13.885Z,3.10
2023-05-05T22:07:16.690Z,2.97
2023-05-05T22:09:19.448Z,4.03
2023-05-05T22:11:22.269Z,3.20
2023-05-05T22:13:25.081Z,2.90
2023-05-05T22:15:32.824Z,3.50
2023-05-05T22:17:43.265Z,3.05
2023-05-05T22:19:46.076Z,3.35
2023-05-05T22:21:48.909Z,2.60
2023-05-05T22:23:51.693Z,2.97
2023-05-05T22:25:54.657Z,3.10
2023-05-05T22:27:57.394Z,2.92
2023-05-05T22:30:00.302Z,2.40
2023-05-05T22:32:03.066Z,2.10
2023-05-05T22:34:07.155Z,2.35
2023-05-05T22:36:11.484Z,2.58
2023-05-05T22:38:14.346Z,2.42
2023-05-05T22:40:17.249Z,2.47
2023-05-05T22:42:20.031Z,2.67
2023-05-05T22:44:22.738Z,2.22
2023-05-05T22:46:25.735Z,2.90
2023-05-05T22:48:29.787Z,3.10
2023-05-05T22:50:34.049Z,2.88
2023-05-05T22:52:36.789Z,2.53
2023-05-05T22:54:39.623Z,3.45
2023-05-05T22:56:42.411Z,3.00
2023-05-05T22:58:46.395Z,2.92
2023-05-05T23:00:49.182Z,2.60
2023-05-05T23:02:52.171Z,2.58
2023-05-05T23:04:55.801Z,3.63
2023-05-05T23:06:59.922Z,2.70
2023-05-05T23:09:02.686Z,3.33
2023-05-05T23:11:05.661Z,2.70
2023-05-05T23:13:08.563Z,3.30
2023-05-05T23:15:12.395Z,3.03
2023-05-05T23:17:15.512Z,3.33
2023-05-05T23:19:18.292Z,2.60
2023-05-05T23:21:21.200Z,3.00
2023-05-05T23:23:25.327Z,3.22
2023-05-05T23:25:28.122Z,3.67
2023-05-05T23:27:30.924Z,3.00
2023-05-05T23:29:33.764Z,3.22
2023-05-05T23:31:36.526Z,3.78
2023-05-05T23:33:39.294Z,4.55
2023-05-05T23:35:43.328Z,5.15
2023-05-05T23:37:46.096Z,3.97
2023-05-05T23:39:50.271Z,3.80
2023-05-05T23:41:53.110Z,3.88
2023-05-05T23:43:55.876Z,3.83
2023-05-05T23:45:58.707Z,3.25
2023-05-05T23:48:01.529Z,3.58
2023-05-05T23:50:04.739Z,3.60
2023-05-05T23:52:07.500Z,3.10
2023-05-05T23:54:10.283Z,3.58
2023-05-05T23:56:14.460Z,4.20
2023-05-05T23:58:17.273Z,3.83
